Time;durP1;ratioP1;P1;durP2;ratioP2;P2;SDS_P1;SDS_P2;PMS_P1;PMS_P2;Temp;Humidity;BMP_temperature;BMP_pressure;BME280_temperature;BME280_humidity;BME280_pressure;Samples;Min_cycle;Max_cycle;Signal;HPM_P1;HPM_P2
2024/01/24 00:00:01;;;;;;;2.22;1.90;;;9.00;99.90;;;;;;5055253;28;20298;-66
2024/01/24 00:02:28;;;;;;;2.65;1.88;;;9.20;99.90;;;;;;5056268;28;20205;-67
2024/01/24 00:04:54;;;;;;;2.00;1.67;;;9.30;99.90;;;;;;5055340;28;20201;-67
2024/01/24 00:07:21;;;;;;;2.47;2.27;;;9.40;99.90;;;;;;5054995;28;20224;-67
2024/01/24 00:09:48;;;;;;;3.38;1.77;;;9.40;99.90;;;;;;5054866;28;20447;-65
2024/01/24 00:12:16;;;;;;;3.53;1.98;;;9.50;99.90;;;;;;5054423;28;20205;-67
2024/01/24 00:14:43;;;;;;;2.47;1.77;;;9.50;99.90;;;;;;5054171;28;20205;-65
2024/01/24 00:17:10;;;;;;;5.23;2.00;;;9.60;99.90;;;;;;5054920;28;20466;-67
2024/01/24 00:19:37;;;;;;;2.17;1.85;;;9.60;99.90;;;;;;5054417;28;20448;-66
2024/01/24 00:22:04;;;;;;;2.22;1.73;;;9.70;99.90;;;;;;5057171;28;20240;-66
2024/01/24 00:24:30;;;;;;;2.00;1.80;;;9.70;99.90;;;;;;5057708;28;20201;-65
2024/01/24 00:26:57;;;;;;;2.00;1.53;;;9.80;99.90;;;;;;5054520;28;20479;-66
2024/01/24 00:29:25;;;;;;;3.47;1.60;;;9.80;99.90;;;;;;5063156;28;20792;-66
2024/01/24 00:31:56;;;;;;;1.67;1.30;;;9.80;99.90;;;;;;5064865;28;20448;-67
2024/01/24 00:34:23;;;;;;;1.30;1.20;;;9.80;99.90;;;;;;5060512;28;20425;-66
2024/01/24 00:36:50;;;;;;;1.83;1.40;;;9.80;99.90;;;;;;5058915;28;20467;-67
2024/01/24 00:39:17;;;;;;;2.30;1.50;;;9.90;99.90;;;;;;5058304;28;20849;-66
2024/01/24 00:41:44;;;;;;;2.17;1.47;;;9.90;99.90;;;;;;5058816;28;20532;-66
2024/01/24 00:44:10;;;;;;;1.87;1.23;;;10.00;99.90;;;;;;5058397;28;20466;-66
2024/01/24 00:46:39;;;;;;;2.50;1.10;;;10.00;99.90;;;;;;5058169;28;20470;-67
2024/01/24 00:49:09;;;;;;;1.30;1.17;;;10.00;99.90;;;;;;5058500;28;20436;-66
2024/01/24 00:51:36;;;;;;;1.60;1.50;;;10.00;99.90;;;;;;5058996;28;20424;-66
2024/01/24 00:54:03;;;;;;;2.77;0.90;;;10.10;99.90;;;;;;5057877;28;20471;-67
2024/01/24 00:56:30;;;;;;;2.40;1.10;;;10.10;99.90;;;;;;5058799;28;20464;-67
2024/01/24 00:58:57;;;;;;;2.03;1.10;;;10.10;99.90;;;;;;5066914;28;20479;-67
2024/01/24 01:01:24;;;;;;;1.23;0.97;;;10.10;99.90;;;;;;5070427;28;20442;-65
2024/01/24 01:03:52;;;;;;;1.50;0.87;;;10.10;99.90;;;;;;5063895;28;20448;-66
2024/01/24 01:06:19;;;;;;;1.57;1.40;;;10.20;99.90;;;;;;5061340;28;20460;-66
2024/01/24 01:08:46;;;;;;;1.03;0.83;;;10.20;99.90;;;;;;5059231;28;20435;-67
2024/01/24 01:11:13;;;;;;;1.40;1.00;;;10.30;99.90;;;;;;5058003;28;20443;-67
2024/01/24 01:13:40;;;;;;;1.20;1.10;;;10.30;99.90;;;;;;5058121;28;20444;-66
2024/01/24 01:16:07;;;;;;;1.10;0.93;;;10.30;99.90;;;;;;5058886;28;20817;-68
2024/01/24 01:18:33;;;;;;;1.33;0.90;;;10.40;99.90;;;;;;5058856;28;20482;-66
2024/01/24 01:21:01;;;;;;;1.33;1.10;;;10.40;99.90;;;;;;5059196;28;20462;-67
2024/01/24 01:23:29;;;;;;;1.57;1.00;;;10.50;99.90;;;;;;5059018;28;20444;-68
2024/01/24 01:25:55;;;;;;;2.27;1.20;;;10.50;99.90;;;;;;5061379;28;20484;-68
2024/01/24 01:28:22;;;;;;;1.40;1.30;;;10.60;99.90;;;;;;5059754;28;20440;-67
2024/01/24 01:30:49;;;;;;;1.30;1.20;;;10.60;99.90;;;;;;5058504;28;20444;-66
2024/01/24 01:33:16;;;;;;;1.30;1.20;;;10.60;99.90;;;;;;5059503;28;20454;-65
2024/01/24 01:35:42;;;;;;;1.87;1.40;;;10.70;99.90;;;;;;5058557;28;20499;-67
2024/01/24 01:38:10;;;;;;;2.37;1.50;;;10.70;99.90;;;;;;5059171;28;20487;-67
2024/01/24 01:40:38;;;;;;;2.07;1.40;;;10.70;99.90;;;;;;5058300;28;20447;-67
2024/01/24 01:43:10;;;;;;;2.50;1.90;;;10.70;99.90;;;;;;5059369;28;20942;-68
2024/01/24 01:45:36;;;;;;;1.87;1.67;;;10.70;99.90;;;;;;5059786;28;20555;-67
2024/01/24 01:48:04;;;;;;;3.40;1.70;;;10.70;99.90;;;;;;5063337;28;20442;-67
2024/01/24 01:50:31;;;;;;;2.30;1.93;;;10.80;99.90;;;;;;5058231;28;20452;-68
2024/01/24 01:52:58;;;;;;;2.70;1.80;;;10.80;99.90;;;;;;5057180;28;20444;-66
2024/01/24 01:55:27;;;;;;;3.53;2.23;;;10.80;99.90;;;;;;5057014;28;20464;-66
2024/01/24 01:57:56;;;;;;;1.77;1.60;;;10.90;99.90;;;;;;5056619;28;20479;-67
2024/01/24 02:00:22;;;;;;;2.30;1.83;;;10.90;99.90;;;;;;5056289;28;20934;-66
2024/01/24 02:02:50;;;;;;;3.00;2.10;;;10.90;99.90;;;;;;5056573;28;20440;-66
2024/01/24 02:05:17;;;;;;;4.60;2.10;;;10.90;99.90;;;;;;5056720;28;20493;-67
2024/01/24 02:07:45;;;;;;;3.53;2.30;;;10.90;99.90;;;;;;5056715;28;20452;-67
2024/01/24 02:10:12;;;;;;;3.70;2.17;;;10.90;99.90;;;;;;5056423;28;20539;-67
2024/01/24 02:12:41;;;;;;;4.20;2.10;;;10.90;99.90;;;;;;5056245;28;20444;-66
2024/01/24 02:15:09;;;;;;;1.93;1.77;;;11.00;99.90;;;;;;5056683;28;20436;-67
2024/01/24 02:17:36;;;;;;;3.10;1.83;;;11.00;99.90;;;;;;5056276;28;20419;-66
2024/01/24 02:20:04;;;;;;;2.78;2.00;;;11.10;99.90;;;;;;5056044;28;20409;-67
2024/01/24 02:22:31;;;;;;;4.20;2.07;;;11.10;99.90;;;;;;5056621;28;20555;-67
2024/01/24 02:24:59;;;;;;;3.58;1.90;;;11.00;99.90;;;;;;5055595;28;20495;-67
2024/01/24 02:27:26;;;;;;;3.38;2.17;;;11.00;99.90;;;;;;5055184;28;20418;-66
2024/01/24 02:29:57;;;;;;;2.40;1.90;;;11.10;99.90;;;;;;5056226;28;20201;-66
2024/01/24 02:32:23;;;;;;;3.15;1.90;;;11.00;99.90;;;;;;5055359;28;20475;-66
2024/01/24 02:34:50;;;;;;;4.03;2.17;;;11.00;99.90;;;;;;5057610;28;20209;-66
2024/01/24 02:37:19;;;;;;;3.80;2.07;;;11.00;99.90;;;;;;5056641;28;20487;-66
2024/01/24 02:39:46;;;;;;;2.73;2.27;;;11.00;99.90;;;;;;5056905;28;20490;-66
2024/01/24 02:42:15;;;;;;;2.78;2.30;;;11.00;99.90;;;;;;5055574;28;20410;-66
2024/01/24 02:44:41;;;;;;;3.40;2.07;;;10.90;99.90;;;;;;5056590;28;20201;-66
2024/01/24 02:47:08;;;;;;;3.22;2.28;;;10.90;99.90;;;;;;5055620;28;20401;-67
2024/01/24 02:49:35;;;;;;;3.58;2.30;;;11.00;99.90;;;;;;5054718;28;20417;-67
2024/01/24 02:52:02;;;;;;;6.40;2.03;;;10.90;99.90;;;;;;5054500;28;20256;-66
2024/01/24 02:54:30;;;;;;;3.03;1.83;;;11.00;99.90;;;;;;5055715;28;20506;-66
2024/01/24 02:56:57;;;;;;;2.90;1.87;;;10.90;99.90;;;;;;5055123;28;20475;-66
2024/01/24 02:59:25;;;;;;;2.00;1.80;;;10.90;99.90;;;;;;5056210;28;20545;-65
2024/01/24 03:01:52;;;;;;;3.03;1.60;;;10.90;99.90;;;;;;5054853;28;20827;-66
2024/01/24 03:04:19;;;;;;;1.50;1.37;;;11.00;99.90;;;;;;5062694;28;20862;-66
2024/01/24 03:06:45;;;;;;;2.60;1.50;;;11.00;99.90;;;;;;5067603;28;20402;-66
2024/01/24 03:09:13;;;;;;;2.17;1.80;;;11.00;99.90;;;;;;5063731;28;20277;-66
2024/01/24 03:11:40;;;;;;;4.00;1.80;;;11.00;99.90;;;;;;5055440;28;20413;-67
2024/01/24 03:14:06;;;;;;;4.03;1.60;;;11.00;99.90;;;;;;5056117;28;20444;-67
2024/01/24 03:16:35;;;;;;;1.40;1.30;;;11.00;99.90;;;;;;5055613;28;20483;-67
2024/01/24 03:19:03;;;;;;;2.37;1.47;;;11.10;99.90;;;;;;5055496;28;20622;-67
2024/01/24 03:21:29;;;;;;;2.03;1.73;;;11.10;99.90;;;;;;5062040;28;20450;-67
2024/01/24 03:23:56;;;;;;;2.30;1.60;;;11.00;99.90;;;;;;5070191;28;20440;-67
2024/01/24 03:26:23;;;;;;;1.40;1.30;;;11.10;99.90;;;;;;5066393;28;20480;-66
2024/01/24 03:28:49;;;;;;;2.60;1.13;;;11.10;99.90;;;;;;5058483;28;20444;-68
2024/01/24 03:31:16;;;;;;;2.03;1.40;;;11.10;99.90;;;;;;5055709;28;20805;-67
2024/01/24 03:33:44;;;;;;;2.15;1.58;;;11.20;99.90;;;;;;5056123;28;20420;-67
2024/01/24 03:36:11;;;;;;;2.43;1.60;;;11.20;99.90;;;;;;5055886;28;20222;-67
2024/01/24 03:38:38;;;;;;;1.47;1.37;;;11.30;99.90;;;;;;5055722;28;20488;-67
2024/01/24 03:41:05;;;;;;;1.90;1.50;;;11.30;99.90;;;;;;5056261;28;20413;-67
2024/01/24 03:43:32;;;;;;;2.53;1.60;;;11.40;99.90;;;;;;5055026;28;20441;-67
2024/01/24 03:45:59;;;;;;;2.47;2.00;;;11.40;99.90;;;;;;5055263;28;20247;-66
2024/01/24 03:48:26;;;;;;;2.28;1.85;;;11.50;99.90;;;;;;5055751;28;20413;-66
2024/01/24 03:50:54;;;;;;;2.30;2.10;;;11.50;99.90;;;;;;5057437;28;20420;-67
2024/01/24 03:53:21;;;;;;;2.83;1.90;;;11.60;99.90;;;;;;5068396;28;20413;-65
2024/01/24 03:55:48;;;;;;;2.57;2.10;;;11.60;99.90;;;;;;5055854;28;20228;-67
2024/01/24 03:58:15;;;;;;;2.77;2.57;;;11.60;99.90;;;;;;5055224;28;20444;-66
2024/01/24 04:00:41;;;;;;;3.47;3.07;;;11.70;99.90;;;;;;5055037;28;20444;-66
2024/01/24 04:03:08;;;;;;;3.27;3.00;;;11.60;99.90;;;;;;5056815;28;20542;-66
2024/01/24 04:05:36;;;;;;;3.40;2.67;;;11.60;99.90;;;;;;5059705;28;20460;-66
2024/01/24 04:08:06;;;;;;;4.10;3.13;;;11.70;99.90;;;;;;5058243;28;20444;-67
2024/01/24 04:13:03;;;;;;;3.40;2.95;;;11.60;99.90;;;;;;5100459;27;1267924;-66
2024/01/24 04:15:30;;;;;;;3.70;3.40;;;11.60;99.90;;;;;;5159497;27;20225;-66
2024/01/24 04:17:57;;;;;;;3.47;3.10;;;11.60;99.90;;;;;;5140446;28;20451;-67
2024/01/24 04:20:24;;;;;;;3.60;3.30;;;11.60;99.90;;;;;;5138504;28;20451;-65
2024/01/24 04:22:50;;;;;;;3.43;3.13;;;11.60;99.90;;;;;;5136716;28;20441;-67
2024/01/24 04:25:17;;;;;;;4.70;3.80;;;11.60;99.90;;;;;;5144313;22;20497;-61
2024/01/24 04:27:44;;;;;;;3.60;3.30;;;11.60;99.90;;;;;;5110191;28;20442;-60
2024/01/24 04:30:13;;;;;;;3.60;3.30;;;11.70;99.90;;;;;;5110150;28;20438;-60
2024/01/24 04:32:40;;;;;;;3.00;2.80;;;11.70;99.90;;;;;;5109553;28;20473;-60
2024/01/24 04:35:08;;;;;;;3.13;2.83;;;11.70;99.90;;;;;;5109908;28;20466;-59
2024/01/24 04:37:34;;;;;;;3.33;2.73;;;11.70;99.90;;;;;;5109643;28;20445;-60
2024/01/24 04:40:01;;;;;;;3.00;2.70;;;11.60;99.90;;;;;;5109854;28;20433;-60
2024/01/24 04:42:28;;;;;;;2.53;2.40;;;11.60;99.90;;;;;;5110020;28;20429;-60
2024/01/24 04:44:55;;;;;;;3.60;3.00;;;11.60;99.90;;;;;;5109925;28;20531;-60
2024/01/24 04:47:23;;;;;;;2.40;2.00;;;11.70;99.90;;;;;;5109821;28;20541;-61
2024/01/24 04:49:50;;;;;;;2.60;2.40;;;11.70;99.90;;;;;;5109826;28;20464;-61
2024/01/24 04:52:16;;;;;;;3.30;2.47;;;11.70;99.90;;;;;;5109676;28;20502;-61
2024/01/24 04:54:43;;;;;;;2.63;2.43;;;11.70;99.90;;;;;;5109530;28;20838;-61
2024/01/24 04:57:10;;;;;;;2.93;2.30;;;11.60;99.90;;;;;;5109595;28;20433;-61
2024/01/24 04:59:37;;;;;;;2.77;2.57;;;11.60;99.90;;;;;;5109385;28;20434;-60
2024/01/24 05:02:05;;;;;;;2.17;1.97;;;11.60;99.90;;;;;;5125449;22;20494;-66
2024/01/24 05:04:33;;;;;;;3.00;2.70;;;11.50;99.90;;;;;;5111504;28;20495;-63
2024/01/24 05:07:00;;;;;;;8.70;2.07;;;11.60;99.90;;;;;;5111185;28;20438;-65
2024/01/24 05:09:27;;;;;;;10.43;2.20;;;11.30;99.90;;;;;;5110540;28;20433;-66
2024/01/24 05:11:54;;;;;;;4.60;1.70;;;10.80;99.90;;;;;;5110247;28;20990;-65
2024/01/24 05:14:20;;;;;;;11.20;2.10;;;10.30;99.90;;;;;;5111372;28;20441;-65
2024/01/24 05:16:47;;;;;;;5.13;1.47;;;10.00;99.90;;;;;;5110431;28;20450;-63
2024/01/24 05:19:14;;;;;;;4.13;1.60;;;9.80;99.90;;;;;;5110205;28;20938;-66
2024/01/24 05:21:43;;;;;;;3.13;1.57;;;9.80;99.90;;;;;;5110059;28;20227;-65
2024/01/24 05:24:11;;;;;;;2.10;0.90;;;9.80;99.90;;;;;;5098182;28;20438;-65
2024/01/24 05:26:38;;;;;;;7.90;1.33;;;9.80;99.90;;;;;;5096530;28;20513;-65
2024/01/24 05:29:05;;;;;;;4.57;1.65;;;9.80;99.90;;;;;;5096481;28;20495;-64
2024/01/24 05:31:33;;;;;;;4.22;1.40;;;9.80;99.90;;;;;;5096563;28;20243;-64
2024/01/24 05:34:01;;;;;;;5.23;1.00;;;9.90;99.90;;;;;;5095982;28;20222;-65
2024/01/24 05:36:27;;;;;;;4.63;1.05;;;10.00;99.90;;;;;;5095990;28;20529;-64
2024/01/24 05:38:55;;;;;;;1.95;1.10;;;10.10;99.90;;;;;;5096076;28;20204;-63
2024/01/24 05:41:22;;;;;;;2.23;0.90;;;10.10;99.90;;;;;;5096183;28;20228;-65
2024/01/24 05:43:49;;;;;;;1.47;1.07;;;10.10;99.90;;;;;;5096122;28;20925;-66
2024/01/24 05:46:16;;;;;;;1.25;0.90;;;10.20;99.90;;;;;;5096506;28;20442;-65
2024/01/24 05:48:43;;;;;;;1.80;1.00;;;10.20;99.90;;;;;;5097647;28;20211;-66
2024/01/24 05:51:09;;;;;;;4.20;1.30;;;10.30;99.90;;;;;;5096990;28;20217;-65
2024/01/24 05:53:36;;;;;;;6.00;1.50;;;10.40;99.90;;;;;;5098443;28;20597;-65
2024/01/24 05:56:05;;;;;;;5.07;1.30;;;10.40;99.90;;;;;;5096608;28;20438;-65
2024/01/24 05:58:31;;;;;;;3.10;1.20;;;10.50;99.90;;;;;;5095998;28;20442;-64
2024/01/24 06:00:58;;;;;;;3.90;1.60;;;10.60;99.90;;;;;;5096863;28;20468;-66
2024/01/24 06:03:25;;;;;;;3.77;1.37;;;10.60;99.90;;;;;;5096041;28;20493;-65
2024/01/24 06:05:52;;;;;;;4.03;1.43;;;10.60;99.90;;;;;;5096492;28;20446;-64
2024/01/24 06:08:18;;;;;;;8.57;2.17;;;10.60;99.90;;;;;;5095953;28;20752;-66
2024/01/24 06:10:45;;;;;;;4.17;1.80;;;10.70;99.90;;;;;;5095423;28;20438;-67
2024/01/24 06:13:13;;;;;;;4.60;1.80;;;10.70;99.90;;;;;;5095866;28;20478;-65
2024/01/24 06:15:40;;;;;;;4.53;1.40;;;10.70;99.90;;;;;;5095226;28;20434;-66
2024/01/24 06:18:07;;;;;;;4.20;1.40;;;10.70;99.90;;;;;;5095244;28;20442;-65
2024/01/24 06:20:34;;;;;;;6.77;2.07;;;10.70;99.90;;;;;;5094958;28;20450;-65
2024/01/24 06:23:01;;;;;;;3.93;1.73;;;10.70;99.90;;;;;;5094969;28;20450;-66
2024/01/24 06:25:27;;;;;;;4.47;1.70;;;10.60;99.90;;;;;;5095440;28;20440;-64
2024/01/24 06:27:54;;;;;;;8.13;1.67;;;10.60;99.90;;;;;;5095325;28;20438;-63
2024/01/24 06:30:22;;;;;;;2.50;1.23;;;10.60;99.90;;;;;;5094738;28;20936;-65
2024/01/24 06:32:49;;;;;;;5.20;2.07;;;10.50;99.90;;;;;;5094293;28;20478;-65
2024/01/24 06:35:16;;;;;;;6.67;1.87;;;10.40;99.90;;;;;;5093928;28;20449;-64
2024/01/24 06:37:42;;;;;;;5.27;1.60;;;10.30;99.90;;;;;;5095149;28;20435;-65
2024/01/24 06:40:10;;;;;;;6.23;2.00;;;10.20;99.90;;;;;;5094919;28;20438;-65
2024/01/24 06:42:37;;;;;;;5.40;1.83;;;10.10;99.90;;;;;;5095383;28;20489;-65
2024/01/24 06:45:06;;;;;;;8.20;1.80;;;10.00;99.90;;;;;;5096079;28;20961;-64
2024/01/24 06:47:34;;;;;;;6.47;2.40;;;9.90;99.90;;;;;;5096936;28;20520;-65
2024/01/24 06:50:01;;;;;;;5.80;1.58;;;9.90;99.90;;;;;;5096681;28;20204;-65
2024/01/24 06:52:28;;;;;;;4.60;1.63;;;9.80;99.90;;;;;;5095612;28;20224;-65
2024/01/24 06:54:54;;;;;;;9.20;2.37;;;9.80;99.90;;;;;;5095988;28;20454;-64
2024/01/24 06:57:21;;;;;;;8.17;2.47;;;9.80;99.90;;;;;;5098971;28;20449;-65
2024/01/24 06:59:47;;;;;;;7.20;2.87;;;9.80;99.90;;;;;;5097509;28;20200;-65
2024/01/24 07:02:14;;;;;;;6.50;2.07;;;9.80;99.90;;;;;;5096225;28;20470;-65
2024/01/24 07:04:42;;;;;;;7.00;2.13;;;9.80;99.90;;;;;;5095617;28;20912;-64
2024/01/24 07:07:09;;;;;;;8.23;2.37;;;9.80;99.90;;;;;;5095183;28;20439;-65
2024/01/24 07:09:36;;;;;;;12.53;2.23;;;9.90;99.90;;;;;;5095797;28;20533;-65
2024/01/24 07:12:04;;;;;;;7.50;2.77;;;9.90;99.90;;;;;;5097757;28;20486;-65
2024/01/24 07:14:31;;;;;;;13.00;2.43;;;9.80;99.90;;;;;;5098660;28;20538;-65
2024/01/24 07:16:57;;;;;;;7.28;2.38;;;9.70;99.90;;;;;;5096248;28;20443;-66
2024/01/24 07:19:24;;;;;;;11.73;2.50;;;9.60;99.90;;;;;;5097001;28;20296;-64
2024/01/24 07:21:52;;;;;;;9.48;2.67;;;9.50;99.90;;;;;;5097557;28;20458;-65
2024/01/24 07:24:19;;;;;;;9.80;3.10;;;9.50;99.90;;;;;;5095900;28;20204;-65
2024/01/24 07:26:46;;;;;;;9.07;2.60;;;9.50;99.90;;;;;;5096371;28;20196;-64
2024/01/24 07:29:13;;;;;;;15.68;2.90;;;9.50;99.90;;;;;;5095912;28;20280;-65
2024/01/24 07:31:40;;;;;;;16.08;4.22;;;9.50;99.90;;;;;;5097034;28;20239;-66
2024/01/24 07:34:07;;;;;;;10.88;3.13;;;9.50;99.90;;;;;;5096819;28;20200;-65
2024/01/24 07:36:34;;;;;;;13.07;3.20;;;9.50;99.90;;;;;;5100365;28;20200;-66
2024/01/24 07:39:02;;;;;;;13.43;3.92;;;9.50;99.90;;;;;;5101353;28;20269;-65
2024/01/24 07:41:29;;;;;;;11.50;2.95;;;9.40;99.90;;;;;;5096756;28;20228;-65
2024/01/24 07:43:56;;;;;;;12.07;2.95;;;9.40;99.90;;;;;;5094042;28;20661;-63
2024/01/24 07:46:24;;;;;;;13.77;3.60;;;9.50;99.90;;;;;;5093910;28;20369;-65
2024/01/24 07:48:51;;;;;;;10.30;2.78;;;9.50;99.90;;;;;;5094671;28;20302;-65
2024/01/24 07:51:18;;;;;;;16.33;3.53;;;9.50;99.90;;;;;;5093913;28;20216;-64
2024/01/24 07:53:45;;;;;;;13.93;3.63;;;9.60;99.90;;;;;;5094188;28;20515;-64
2024/01/24 07:56:13;;;;;;;19.40;4.47;;;9.60;99.90;;;;;;5094038;28;20204;-63
2024/01/24 07:58:40;;;;;;;19.73;6.00;;;9.70;99.90;;;;;;5093434;28;20446;-66
2024/01/24 08:01:08;;;;;;;15.65;3.88;;;9.70;99.90;;;;;;5093922;28;20466;-65
2024/01/24 08:03:35;;;;;;;20.67;4.10;;;9.50;99.90;;;;;;5094095;28;20642;-64
2024/01/24 08:06:02;;;;;;;14.65;3.40;;;9.40;99.90;;;;;;5094455;28;20682;-65
2024/01/24 08:08:29;;;;;;;15.48;4.65;;;9.40;99.90;;;;;;5094323;28;20197;-64
2024/01/24 08:10:55;;;;;;;21.20;3.63;;;9.30;99.90;;;;;;5094574;28;20212;-65
2024/01/24 08:13:24;;;;;;;19.35;4.63;;;9.30;99.90;;;;;;5096961;28;20220;-64
2024/01/24 08:15:50;;;;;;;22.20;4.50;;;9.30;99.90;;;;;;5095148;28;20200;-63
2024/01/24 08:18:17;;;;;;;19.98;4.28;;;9.30;99.90;;;;;;5096186;28;20783;-65
2024/01/24 08:20:44;;;;;;;12.98;3.88;;;9.30;99.90;;;;;;5097287;28;20215;-65
2024/01/24 08:23:12;;;;;;;12.55;3.15;;;9.40;99.90;;;;;;5096518;28;20200;-65
2024/01/24 08:25:38;;;;;;;12.45;3.42;;;9.40;99.90;;;;;;5095406;28;20208;-65
2024/01/24 08:28:05;;;;;;;20.33;5.15;;;9.50;99.90;;;;;;5095332;28;20227;-65
2024/01/24 08:30:33;;;;;;;11.50;2.95;;;9.60;99.90;;;;;;5094626;28;20207;-65
2024/01/24 08:33:00;;;;;;;13.80;3.50;;;9.70;99.90;;;;;;5093851;28;20268;-64
2024/01/24 08:35:27;;;;;;;10.38;3.75;;;9.80;99.90;;;;;;5093719;28;20438;-65
2024/01/24 08:37:54;;;;;;;13.07;3.53;;;10.00;99.90;;;;;;5093751;28;20204;-65
2024/01/24 08:40:21;;;;;;;9.50;2.97;;;10.10;99.90;;;;;;5093625;28;20239;-65
2024/01/24 08:42:48;;;;;;;14.43;3.70;;;10.30;99.90;;;;;;5093249;28;20450;-64
2024/01/24 08:45:15;;;;;;;13.20;3.37;;;10.40;99.90;;;;;;5094211;28;20434;-65
2024/01/24 08:47:43;;;;;;;14.43;3.50;;;10.40;99.90;;;;;;5093638;28;20442;-65
2024/01/24 08:50:11;;;;;;;11.63;3.47;;;10.50;99.90;;;;;;5094964;28;20450;-65
2024/01/24 08:52:38;;;;;;;16.70;3.73;;;10.50;99.90;;;;;;5094656;28;20478;-65
2024/01/24 08:55:06;;;;;;;16.93;3.80;;;10.50;99.90;;;;;;5093662;28;20858;-64
2024/01/24 08:57:33;;;;;;;16.00;3.33;;;10.60;99.90;;;;;;5094173;28;20438;-65
2024/01/24 08:59:59;;;;;;;20.17;4.60;;;10.60;99.90;;;;;;5097139;28;20936;-66
2024/01/24 09:02:26;;;;;;;15.80;3.37;;;10.60;99.90;;;;;;5096786;28;20466;-65
2024/01/24 09:04:54;;;;;;;13.60;2.90;;;10.70;99.90;;;;;;5097892;28;20570;-66
2024/01/24 09:07:21;;;;;;;15.43;4.37;;;10.70;99.90;;;;;;5097362;28;20438;-66
2024/01/24 09:09:49;;;;;;;13.63;3.43;;;10.70;99.90;;;;;;5097137;28;20957;-65
2024/01/24 09:12:15;;;;;;;10.70;3.40;;;10.70;99.90;;;;;;5097387;28;20462;-66
2024/01/24 09:14:44;;;;;;;14.40;3.77;;;10.70;99.90;;;;;;5097110;28;20441;-66
2024/01/24 09:17:11;;;;;;;11.77;4.10;;;10.70;99.90;;;;;;5096785;28;20489;-65
2024/01/24 09:19:38;;;;;;;12.20;3.20;;;10.80;99.90;;;;;;5096585;28;20453;-66
2024/01/24 09:22:06;;;;;;;12.83;4.50;;;10.80;99.90;;;;;;5096403;28;20462;-65
2024/01/24 09:24:32;;;;;;;13.43;2.90;;;10.80;99.90;;;;;;5096710;28;20437;-65
2024/01/24 09:26:59;;;;;;;12.47;3.43;;;10.80;99.90;;;;;;5096461;28;20468;-65
2024/01/24 09:29:26;;;;;;;9.83;3.10;;;10.80;99.90;;;;;;5096814;28;20438;-66
2024/01/24 09:31:52;;;;;;;17.43;4.00;;;10.80;99.90;;;;;;5096306;28;20481;-66
2024/01/24 09:34:19;;;;;;;10.37;3.17;;;10.90;99.90;;;;;;5096639;28;20485;-65
2024/01/24 09:36:46;;;;;;;20.40;3.27;;;10.90;99.90;;;;;;5096558;28;20445;-64
2024/01/24 09:39:14;;;;;;;11.77;3.80;;;10.90;99.90;;;;;;5096205;28;20950;-64
2024/01/24 09:41:42;;;;;;;13.27;3.00;;;10.90;99.90;;;;;;5096755;28;20574;-64
2024/01/24 09:44:11;;;;;;;17.80;3.87;;;10.80;99.90;;;;;;5096198;28;20430;-64
2024/01/24 09:46:40;;;;;;;15.57;5.20;;;10.70;99.90;;;;;;5096299;28;20449;-65
2024/01/24 09:49:07;;;;;;;12.13;3.27;;;10.60;99.90;;;;;;5096764;28;20442;-66
2024/01/24 09:51:35;;;;;;;36.47;6.00;;;10.50;99.90;;;;;;5097319;28;20466;-66
2024/01/24 09:54:05;;;;;;;14.60;4.10;;;10.50;99.90;;;;;;5096357;28;20478;-67
2024/01/24 09:56:35;;;;;;;12.70;4.23;;;10.50;99.90;;;;;;5096663;28;20793;-65
2024/01/24 09:59:03;;;;;;;19.20;3.65;;;10.50;99.90;;;;;;5096374;28;20449;-66
2024/01/24 10:01:52;;;;;;;14.97;3.73;;;10.40;99.90;;;;;;5095390;28;20243;-65
2024/01/24 10:04:19;;;;;;;15.43;4.23;;;10.40;99.90;;;;;;5095910;28;20462;-65
2024/01/24 10:06:47;;;;;;;23.37;5.10;;;10.30;99.90;;;;;;5095913;28;20449;-66
2024/01/24 10:09:14;;;;;;;12.30;4.30;;;10.20;99.90;;;;;;5095895;28;20438;-65
2024/01/24 10:11:42;;;;;;;13.73;4.13;;;10.20;99.90;;;;;;5095898;28;20553;-68
2024/01/24 10:14:08;;;;;;;13.40;3.93;;;10.30;99.90;;;;;;5096364;28;20478;-66
2024/01/24 10:16:35;;;;;;;17.67;4.13;;;10.30;99.90;;;;;;5095865;28;20441;-66
2024/01/24 10:19:02;;;;;;;15.10;3.13;;;10.30;99.90;;;;;;5095997;28;20434;-64
2024/01/24 10:21:29;;;;;;;13.80;5.00;;;10.30;99.90;;;;;;5095915;28;20473;-65
2024/01/24 10:23:56;;;;;;;15.60;3.60;;;10.30;99.90;;;;;;5095768;28;20461;-66
2024/01/24 10:26:23;;;;;;;17.40;4.13;;;10.30;99.90;;;;;;5095963;28;20495;-66
2024/01/24 10:28:51;;;;;;;22.57;5.57;;;10.30;99.90;;;;;;5096025;28;20449;-66
2024/01/24 10:31:19;;;;;;;16.40;4.30;;;10.40;99.90;;;;;;5095682;28;20470;-66
2024/01/24 10:33:48;;;;;;;16.23;4.40;;;10.50;99.90;;;;;;5096044;28;20474;-64
2024/01/24 10:36:15;;;;;;;16.90;5.30;;;10.60;99.90;;;;;;5095839;28;20435;-65
2024/01/24 10:38:47;;;;;;;8.23;3.00;;;10.70;99.90;;;;;;5095832;28;20448;-66
2024/01/24 10:41:16;;;;;;;21.40;5.90;;;10.80;99.90;;;;;;5095576;28;20458;-66
2024/01/24 10:43:51;;;;;;;13.87;4.13;;;10.80;99.90;;;;;;5096392;28;20439;-66
2024/01/24 10:46:19;;;;;;;16.17;4.33;;;10.80;99.90;;;;;;5096236;28;20427;-67
2024/01/24 10:48:47;;;;;;;8.97;3.30;;;10.70;99.90;;;;;;5096385;28;20819;-67
2024/01/24 10:51:14;;;;;;;14.07;5.03;;;10.70;99.90;;;;;;5096121;28;20458;-67
2024/01/24 10:53:41;;;;;;;14.57;5.13;;;10.70;99.90;;;;;;5096648;28;20485;-67
2024/01/24 10:56:08;;;;;;;19.13;4.73;;;10.80;99.90;;;;;;5100247;28;20445;-66
2024/01/24 10:58:36;;;;;;;14.93;5.23;;;10.80;99.90;;;;;;5103158;28;20438;-67
2024/01/24 11:01:03;;;;;;;12.23;4.00;;;10.80;99.90;;;;;;5101378;28;20474;-65
2024/01/24 11:03:32;;;;;;;16.17;4.47;;;10.80;99.90;;;;;;5100090;28;20419;-66
2024/01/24 11:06:02;;;;;;;15.47;3.67;;;10.80;99.90;;;;;;5100658;28;20454;-65
2024/01/24 11:08:33;;;;;;;20.77;4.80;;;10.80;99.90;;;;;;5102796;28;20457;-67
2024/01/24 11:11:05;;;;;;;17.53;4.57;;;10.80;99.90;;;;;;5101895;28;20437;-67
2024/01/24 11:13:35;;;;;;;10.90;3.50;;;10.80;99.90;;;;;;5099487;28;20493;-67
2024/01/24 11:16:06;;;;;;;15.60;3.97;;;10.80;99.90;;;;;;5095335;28;20447;-66
2024/01/24 11:18:34;;;;;;;19.63;5.33;;;10.80;99.20;;;;;;5095179;28;20419;-66
2024/01/24 11:21:01;;;;;;;16.50;5.37;;;10.80;99.10;;;;;;5094406;28;20438;-67
2024/01/24 11:23:40;;;;;;;15.63;4.83;;;10.80;98.50;;;;;;5094614;28;20430;-66
2024/01/24 11:26:09;;;;;;;20.87;6.30;;;10.80;98.20;;;;;;5094825;28;20427;-66
2024/01/24 11:28:36;;;;;;;16.33;4.53;;;10.80;98.40;;;;;;5094793;28;20519;-67
2024/01/24 11:31:03;;;;;;;14.47;4.17;;;10.80;98.70;;;;;;5094802;28;20474;-65
2024/01/24 11:33:30;;;;;;;12.93;4.80;;;10.80;98.40;;;;;;5094474;28;20478;-66
2024/01/24 11:35:57;;;;;;;17.40;5.13;;;10.80;98.40;;;;;;5094446;28;20449;-63
2024/01/24 11:38:35;;;;;;;10.97;3.83;;;10.80;98.50;;;;;;5095239;28;20438;-66
2024/01/24 11:41:04;;;;;;;14.23;4.43;;;10.80;97.90;;;;;;5094905;28;20515;-65
2024/01/24 11:43:32;;;;;;;24.13;5.77;;;10.90;97.80;;;;;;5094584;28;20435;-67
2024/01/24 11:46:01;;;;;;;15.17;3.77;;;10.80;97.60;;;;;;5094460;28;20438;-67
2024/01/24 11:48:28;;;;;;;20.53;3.97;;;10.90;97.50;;;;;;5094628;28;20866;-68
2024/01/24 11:50:58;;;;;;;17.10;3.60;;;10.90;97.20;;;;;;5094471;28;20440;-65
2024/01/24 11:53:25;;;;;;;15.23;4.30;;;10.90;96.80;;;;;;5094111;28;20478;-68
2024/01/24 11:55:53;;;;;;;25.33;5.60;;;10.90;96.60;;;;;;5094820;28;20438;-66
2024/01/24 11:58:20;;;;;;;18.73;5.37;;;10.90;96.60;;;;;;5095125;28;20512;-66
2024/01/24 12:00:46;;;;;;;14.47;4.50;;;10.90;96.10;;;;;;5093955;28;20435;-66
2024/01/24 12:03:16;;;;;;;18.40;5.30;;;10.80;96.00;;;;;;5094053;28;20447;-67
2024/01/24 12:05:43;;;;;;;20.60;5.47;;;10.90;96.40;;;;;;5093730;28;20443;-66
2024/01/24 12:08:12;;;;;;;10.77;3.47;;;10.90;95.70;;;;;;5093392;28;20446;-66
2024/01/24 12:10:39;;;;;;;16.03;4.70;;;10.90;95.00;;;;;;5094386;28;20585;-67
2024/01/24 12:13:07;;;;;;;18.70;4.77;;;10.90;94.80;;;;;;5093075;28;20466;-68
2024/01/24 12:15:34;;;;;;;8.47;3.20;;;10.90;94.80;;;;;;5094402;28;20442;-66
2024/01/24 12:18:10;;;;;;;23.07;4.93;;;10.90;94.40;;;;;;5096057;28;20438;-66
2024/01/24 12:20:37;;;;;;;17.10;4.50;;;10.90;94.50;;;;;;5093998;28;20452;-67
2024/01/24 12:23:07;;;;;;;18.30;3.47;;;10.90;94.40;;;;;;5093397;28;20995;-67
2024/01/24 12:25:36;;;;;;;9.07;3.90;;;10.90;93.90;;;;;;5093370;28;20430;-64
2024/01/24 12:28:03;;;;;;;15.00;4.47;;;10.90;93.80;;;;;;5093848;28;20876;-66
2024/01/24 12:30:32;;;;;;;14.40;3.70;;;10.90;93.80;;;;;;5093660;28;20446;-65
2024/01/24 12:32:59;;;;;;;9.07;3.50;;;10.90;93.60;;;;;;5094739;28;20458;-66
2024/01/24 12:35:26;;;;;;;7.90;3.50;;;10.80;94.20;;;;;;5098491;28;20470;-69
2024/01/24 12:37:53;;;;;;;20.27;5.30;;;10.80;94.80;;;;;;5098020;28;20457;-67
2024/01/24 12:40:20;;;;;;;13.60;3.77;;;10.70;95.10;;;;;;5098492;28;20441;-65
2024/01/24 12:42:48;;;;;;;13.67;4.00;;;10.70;95.30;;;;;;5097327;28;20797;-66
2024/01/24 12:45:15;;;;;;;20.23;4.00;;;10.60;95.40;;;;;;5097649;28;20781;-66
2024/01/24 12:47:43;;;;;;;13.23;3.77;;;10.60;95.90;;;;;;5097500;28;20449;-67